Terminal Aerodrome Forecast
Issued by NWS

Home | Current Version | Previous Version | Text Only | Print | Product List | Glossary Off
Versions: 1 2 3 4 5 6 7 8 9 10 11 12 13 14 15 16 17 18

956
FTUS43 KIWX 252326
TAFSBN
TAF
KSBN 252326Z 2600/2624 11010KT 5SM -RA BR SCT025 BKN045
      TEMPO 2600/2604 2SM RA BR OVC025
     FM261100 13009KT 2SM SHRA BR OVC008
     FM261800 18010KT 5SM -SHRA BR OVC020=

USA.gov is the U.S. government's official web portal to all federal, state and local government web resources and services.